Time;durP1;ratioP1;P1;durP2;ratioP2;P2;SDS_P1;SDS_P2;PMS_P1;PMS_P2;Temp;Humidity;BMP_temperature;BMP_pressure;BME280_temperature;BME280_humidity;BME280_pressure;Samples;Min_cycle;Max_cycle;Signal;HPM_P1;HPM_P2
2021/08/31 00:02:19;;;;;;;36.80;21.80;;;;;;;15.26;97.03;101251.84;5028133;28;20041;-77
2021/08/31 00:04:44;;;;;;;36.05;22.23;;;;;;;15.28;96.69;101249.56;5020717;28;20040;-78
2021/08/31 00:07:10;;;;;;;36.05;20.50;;;;;;;15.31;96.19;101260.97;5017073;28;20041;-77
2021/08/31 00:09:35;;;;;;;35.53;20.73;;;;;;;15.35;96.27;101261.19;5017848;28;20060;-77
2021/08/31 00:12:01;;;;;;;34.90;20.58;;;;;;;15.36;96.07;101263.69;5027185;28;20036;-77
2021/08/31 00:14:27;;;;;;;38.03;21.25;;;;;;;15.38;95.86;101257.78;5021792;28;20035;-77
2021/08/31 00:16:52;;;;;;;33.60;19.73;;;;;;;15.40;95.68;101266.69;5022791;28;20034;-77
2021/08/31 00:19:18;;;;;;;34.15;19.25;;;;;;;15.40;95.40;101261.09;5023894;28;20045;-77
2021/08/31 00:21:44;;;;;;;30.00;19.23;;;;;;;15.42;95.25;101265.25;5039360;28;20030;-77
2021/08/31 00:24:09;;;;;;;28.52;17.60;;;;;;;15.45;94.59;101269.41;5032314;28;20029;-78
2021/08/31 00:26:35;;;;;;;26.38;15.63;;;;;;;15.53;94.30;101268.69;5039176;28;20032;-78
2021/08/31 00:29:00;;;;;;;24.98;13.38;;;;;;;15.50;93.78;101276.88;5022929;28;20025;-78
2021/08/31 00:31:26;;;;;;;28.35;13.32;;;;;;;15.50;93.03;101272.09;5015124;28;20044;-77
2021/08/31 00:33:51;;;;;;;22.23;13.40;;;;;;;15.50;93.41;101272.09;5019507;28;20036;-77
2021/08/31 00:36:17;;;;;;;21.98;13.18;;;;;;;15.49;92.82;101272.41;5046490;28;20086;-78
2021/08/31 00:38:42;;;;;;;24.33;12.48;;;;;;;15.55;92.56;101268.41;5000924;28;20393;-77
2021/08/31 00:41:08;;;;;;;19.05;12.43;;;;;;;15.50;92.34;101260.91;5002444;28;20508;-77
2021/08/31 00:43:46;;;;;;;20.63;12.60;;;;;;;15.52;92.22;101269.00;5040678;28;20037;-77
2021/08/31 00:46:13;;;;;;;26.83;13.48;;;;;;;15.50;92.05;101266.50;5016471;28;20128;-77
2021/08/31 00:48:41;;;;;;;23.38;12.68;;;;;;;15.50;92.04;101271.28;5032839;28;20060;-78
2021/08/31 00:51:08;;;;;;;19.67;12.80;;;;;;;15.51;92.29;101270.97;5023719;28;20443;-77
2021/08/31 00:53:34;;;;;;;26.70;12.80;;;;;;;15.52;92.03;101274.63;5001951;28;20056;-77
2021/08/31 00:56:00;;;;;;;21.70;12.82;;;;;;;15.57;91.63;101274.50;5021730;28;20036;-78
2021/08/31 00:58:25;;;;;;;21.10;13.18;;;;;;;15.54;91.63;101277.91;5021111;28;20029;-77
2021/08/31 01:00:51;;;;;;;23.70;13.18;;;;;;;15.56;91.45;101273.66;5011061;28;20033;-77
2021/08/31 01:03:16;;;;;;;22.95;14.32;;;;;;;15.54;91.69;101277.91;5001062;28;20049;-77
2021/08/31 01:05:42;;;;;;;22.60;13.07;;;;;;;15.57;91.54;101274.50;5022890;28;20069;-77
2021/08/31 01:08:07;;;;;;;24.45;14.40;;;;;;;15.57;91.40;101280.09;5013746;28;20029;-77
2021/08/31 01:10:33;;;;;;;26.33;13.93;;;;;;;15.54;91.66;101283.50;5024088;28;20560;-77
2021/08/31 01:12:58;;;;;;;22.02;13.93;;;;;;;15.54;91.87;101286.31;5024354;28;20075;-77
2021/08/31 01:15:24;;;;;;;23.10;13.88;;;;;;;15.55;91.70;101282.41;5015943;28;20021;-77
2021/08/31 01:17:50;;;;;;;23.10;13.80;;;;;;;15.53;91.71;101279.88;5028402;28;20030;-77
2021/08/31 01:20:15;;;;;;;25.38;14.88;;;;;;;15.53;91.90;101281.88;5029636;28;20027;-77
2021/08/31 01:22:41;;;;;;;23.98;14.25;;;;;;;15.54;91.99;101280.72;5011349;28;20075;-77
2021/08/31 01:25:07;;;;;;;25.75;14.45;;;;;;;15.53;91.86;101290.25;5031213;28;20044;-77
2021/08/31 01:27:32;;;;;;;24.25;13.80;;;;;;;15.54;91.76;101283.50;5020878;28;20041;-78
2021/08/31 01:29:58;;;;;;;24.77;14.80;;;;;;;15.54;91.96;101286.31;5017734;28;20036;-77
2021/08/31 01:32:24;;;;;;;23.70;14.43;;;;;;;15.54;91.94;101289.09;5036646;28;20059;-78
2021/08/31 01:34:49;;;;;;;20.15;12.82;;;;;;;15.57;91.72;101291.28;5039766;28;20029;-77
2021/08/31 01:37:15;;;;;;;25.63;14.63;;;;;;;15.53;92.05;101290.25;5029762;28;20390;-77
2021/08/31 01:39:41;;;;;;;21.45;12.93;;;;;;;15.56;91.05;101292.44;5013605;28;20029;-77
2021/08/31 01:42:06;;;;;;;20.45;12.60;;;;;;;15.57;91.19;101291.28;5039319;28;20491;-77
2021/08/31 01:44:32;;;;;;;24.33;12.50;;;;;;;15.54;91.33;101291.91;5049769;28;20097;-77
2021/08/31 01:46:57;;;;;;;24.92;13.13;;;;;;;15.52;90.96;101291.41;5000470;28;20032;-77
2021/08/31 01:49:23;;;;;;;20.10;11.95;;;;;;;15.54;90.92;101297.50;5019387;28;20041;-77
2021/08/31 01:51:48;;;;;;;16.92;10.80;;;;;;;15.55;90.49;101288.00;5027866;28;20048;-78
2021/08/31 01:54:14;;;;;;;17.65;10.40;;;;;;;15.50;90.61;101288.09;5024020;28;20082;-77
2021/08/31 01:56:39;;;;;;;19.13;10.18;;;;;;;15.49;90.59;101289.19;5019702;28;20025;-77
2021/08/31 01:59:05;;;;;;;16.58;10.50;;;;;;;15.47;90.46;101285.91;5033715;28;20087;-77
2021/08/31 02:01:31;;;;;;;17.88;10.00;;;;;;;15.47;90.17;101291.50;5005674;28;20366;-77
2021/08/31 02:03:56;;;;;;;16.10;9.65;;;;;;;15.47;90.22;101292.31;5033308;28;20057;-77
2021/08/31 02:06:22;;;;;;;18.10;9.02;;;;;;;15.46;90.10;101287.03;4994916;28;20164;-77
2021/08/31 02:08:47;;;;;;;14.30;8.95;;;;;;;15.45;89.87;101288.16;5038708;28;20093;-77
2021/08/31 02:11:13;;;;;;;15.45;9.23;;;;;;;15.45;89.91;101288.16;5020194;28;20030;-77
2021/08/31 02:13:38;;;;;;;14.68;10.00;;;;;;;15.45;89.81;101293.78;5007172;28;20033;-77
2021/08/31 02:16:04;;;;;;;16.15;9.43;;;;;;;15.44;90.14;101292.94;5026693;28;20057;-77
2021/08/31 02:18:30;;;;;;;15.63;9.93;;;;;;;15.46;89.68;101287.03;5031633;28;20035;-77
2021/08/31 02:20:55;;;;;;;15.27;9.35;;;;;;;15.44;89.54;101281.75;5028643;28;20059;-77
2021/08/31 02:23:20;;;;;;;16.17;9.57;;;;;;;15.46;89.26;101289.81;5019982;28;20032;-77
2021/08/31 02:25:46;;;;;;;16.05;10.15;;;;;;;15.47;89.57;101291.50;5008507;28;20041;-77
2021/08/31 02:28:11;;;;;;;14.80;10.52;;;;;;;15.42;89.78;101298.84;5032952;28;20313;-77
2021/08/31 02:30:37;;;;;;;19.80;11.27;;;;;;;15.41;89.81;101299.16;5033518;28;20037;-77
2021/08/31 02:33:03;;;;;;;17.00;12.63;;;;;;;15.41;89.83;101294.38;5010895;28;20076;-77
2021/08/31 02:35:28;;;;;;;19.48;12.68;;;;;;;15.42;89.59;101300.81;5018886;28;20461;-77
2021/08/31 02:37:55;;;;;;;19.17;13.20;;;;;;;15.41;89.49;101305.59;5017890;28;20078;-77
2021/08/31 02:40:20;;;;;;;20.10;12.30;;;;;;;15.39;89.76;101299.44;5019781;28;20028;-77
2021/08/31 02:42:46;;;;;;;18.23;12.60;;;;;;;15.39;89.66;101296.66;5027942;28;20385;-77
2021/08/31 02:45:11;;;;;;;18.55;12.43;;;;;;;15.41;89.25;101302.78;5020806;28;20044;-77
2021/08/31 02:47:37;;;;;;;21.05;13.15;;;;;;;15.41;89.62;101296.38;5003591;28;20025;-78
2021/08/31 02:50:04;;;;;;;20.42;13.65;;;;;;;15.41;89.39;101300.00;5002291;28;20115;-78
2021/08/31 02:52:29;;;;;;;20.35;14.32;;;;;;;15.39;89.52;101299.44;5011341;28;20025;-77
2021/08/31 02:54:55;;;;;;;22.95;14.10;;;;;;;15.38;89.34;101289.41;5021480;28;20014;-77
2021/08/31 02:57:20;;;;;;;21.58;15.27;;;;;;;15.37;89.32;101292.50;4995002;28;20029;-78
2021/08/31 02:59:46;;;;;;;21.40;14.38;;;;;;;15.37;89.04;101293.31;5012660;28;20025;-77
2021/08/31 03:02:12;;;;;;;20.38;14.75;;;;;;;15.38;88.88;101296.97;5034848;28;20041;-78
2021/08/31 03:04:39;;;;;;;21.17;15.20;;;;;;;15.37;89.34;101304.53;5018873;28;20038;-78
2021/08/31 03:07:09;;;;;;;21.65;15.85;;;;;;;15.38;89.18;101306.19;5007394;28;20036;-78
2021/08/31 03:09:34;;;;;;;20.85;13.98;;;;;;;15.38;89.25;101308.19;5019315;28;20033;-77
2021/08/31 03:12:00;;;;;;;21.83;14.52;;;;;;;15.41;89.24;101304.75;4999785;28;20608;-77
2021/08/31 03:14:26;;;;;;;20.80;13.98;;;;;;;15.42;88.80;101301.63;5008439;28;20474;-78
2021/08/31 03:16:52;;;;;;;22.50;14.90;;;;;;;15.42;89.30;101307.22;5025152;28;20028;-77
2021/08/31 03:19:18;;;;;;;19.85;13.98;;;;;;;15.41;89.22;101311.19;5015639;28;20061;-78
2021/08/31 03:21:43;;;;;;;18.95;13.77;;;;;;;15.41;89.12;101304.75;4995164;28;20028;-77
2021/08/31 03:24:09;;;;;;;20.55;13.73;;;;;;;15.39;89.30;101305.06;4989001;28;20080;-78
2021/08/31 03:26:35;;;;;;;17.98;13.10;;;;;;;15.41;89.23;101302.78;5003890;28;20029;-78
2021/08/31 03:29:00;;;;;;;20.85;13.50;;;;;;;15.42;89.42;101307.22;5001334;28;20117;-78
2021/08/31 03:31:26;;;;;;;19.50;13.43;;;;;;;15.40;89.28;101309.50;5007560;28;20025;-78
2021/08/31 03:33:51;;;;;;;21.15;13.05;;;;;;;15.38;89.47;101309.00;5027999;28;20028;-77
2021/08/31 03:36:17;;;;;;;23.60;13.77;;;;;;;15.40;89.53;101308.69;5029630;28;20187;-78
2021/08/31 03:38:42;;;;;;;17.60;12.45;;;;;;;15.38;89.65;101320.19;5019384;28;20510;-77
2021/08/31 03:41:08;;;;;;;17.98;12.20;;;;;;;15.35;89.79;101304.03;5009394;28;20037;-78
2021/08/31 03:43:33;;;;;;;18.58;13.45;;;;;;;15.35;90.14;101306.81;5027954;28;20025;-78
2021/08/31 03:45:59;;;;;;;19.45;12.70;;;;;;;15.38;89.94;101309.00;5018469;28;20041;-77
2021/08/31 03:48:24;;;;;;;18.30;13.25;;;;;;;15.37;89.70;101304.53;5019211;28;20036;-78
2021/08/31 03:50:50;;;;;;;17.83;12.68;;;;;;;15.37;89.66;101310.13;5016121;28;20055;-77
2021/08/31 03:53:15;;;;;;;18.20;11.93;;;;;;;15.35;89.99;101306.81;5020309;28;20127;-77
2021/08/31 03:55:40;;;;;;;18.92;11.85;;;;;;;15.32;90.17;101307.44;5023540;28;20034;-78
2021/08/31 03:58:07;;;;;;;16.92;11.93;;;;;;;15.31;90.59;101316.94;5015161;28;20443;-78
2021/08/31 04:00:35;;;;;;;18.50;11.65;;;;;;;15.31;90.38;101307.72;5022170;28;20029;-78
2021/08/31 04:03:01;;;;;;;18.27;11.93;;;;;;;15.30;90.45;101304.09;5016003;28;20049;-77
2021/08/31 04:05:27;;;;;;;16.13;11.45;;;;;;;15.29;90.29;101299.63;4996938;28;20039;-77
2021/08/31 04:07:53;;;;;;;20.67;11.45;;;;;;;15.30;90.52;101304.09;5040359;28;20021;-77
2021/08/31 04:10:18;;;;;;;17.48;11.50;;;;;;;15.28;90.73;101306.38;5025023;28;20405;-78
2021/08/31 04:12:44;;;;;;;15.20;11.15;;;;;;;15.28;90.37;101300.78;5037403;28;20481;-77
2021/08/31 04:15:10;;;;;;;17.90;11.70;;;;;;;15.29;90.42;101318.38;5018614;28;20025;-77
2021/08/31 04:17:35;;;;;;;19.38;11.25;;;;;;;15.29;90.60;101313.63;5028167;28;20025;-78
2021/08/31 04:20:01;;;;;;;19.35;10.88;;;;;;;15.31;89.33;101305.75;5035502;28;20050;-78
2021/08/31 04:22:26;;;;;;;19.30;11.95;;;;;;;15.30;90.07;101314.47;5019418;28;20037;-77
2021/08/31 04:24:52;;;;;;;13.85;10.70;;;;;;;15.29;89.45;101308.03;5041300;28;20036;-77
2021/08/31 04:27:17;;;;;;;17.52;10.93;;;;;;;15.29;90.37;101308.03;5019615;28;20080;-77
2021/08/31 04:29:43;;;;;;;16.13;10.88;;;;;;;15.26;90.96;101296.63;5025812;28;20083;-78
2021/08/31 04:32:08;;;;;;;17.73;11.40;;;;;;;15.24;90.75;101299.75;5007721;28;20033;-77
2021/08/31 04:34:34;;;;;;;16.05;10.85;;;;;;;15.24;90.88;101304.47;5053291;28;20370;-78
2021/08/31 04:36:59;;;;;;;16.33;11.52;;;;;;;15.24;90.41;101307.28;5024175;28;20354;-78
2021/08/31 04:39:25;;;;;;;15.32;10.35;;;;;;;15.25;90.59;101311.75;5028443;28;20029;-78
2021/08/31 04:41:50;;;;;;;14.52;10.95;;;;;;;15.26;90.28;101313.41;5003636;28;20033;-78
2021/08/31 04:44:16;;;;;;;20.77;11.32;;;;;;;15.20;90.91;101310.69;5006516;28;20022;-78
2021/08/31 04:46:42;;;;;;;15.50;9.88;;;;;;;15.24;90.67;101315.69;5021680;28;20030;-78
2021/08/31 04:49:07;;;;;;;16.50;10.25;;;;;;;15.23;90.39;101320.44;5018554;28;20041;-77
2021/08/31 04:51:33;;;;;;;14.98;10.32;;;;;;;15.21;90.81;101319.94;5009453;28;20037;-78
2021/08/31 04:53:59;;;;;;;17.98;10.65;;;;;;;15.22;90.61;101318.78;5023667;28;20044;-78
2021/08/31 04:56:25;;;;;;;20.15;10.80;;;;;;;15.21;90.89;101317.16;5017612;28;20422;-78
2021/08/31 04:58:50;;;;;;;16.92;10.38;;;;;;;15.20;90.79;101318.25;5026755;28;20029;-78
2021/08/31 05:01:16;;;;;;;18.48;10.10;;;;;;;15.18;90.92;101315.78;5038091;28;20041;-78
2021/08/31 05:03:42;;;;;;;18.63;10.73;;;;;;;15.18;91.27;101318.59;5031419;28;20038;-77
2021/08/31 05:06:09;;;;;;;19.67;10.30;;;;;;;15.17;90.54;101316.06;5018065;28;20036;-78
2021/08/31 05:08:35;;;;;;;16.75;10.10;;;;;;;15.18;90.94;101324.19;5026329;28;20119;-77
2021/08/31 05:11:00;;;;;;;17.63;9.70;;;;;;;15.18;90.61;101328.91;5030047;28;20044;-78
2021/08/31 05:13:26;;;;;;;16.95;9.65;;;;;;;15.17;91.16;101332.88;5000143;28;20040;-77
2021/08/31 05:15:51;;;;;;;18.52;10.35;;;;;;;15.17;91.29;101344.88;4990888;28;20033;-78
2021/08/31 05:18:17;;;;;;;16.67;9.73;;;;;;;15.16;91.30;101342.41;5019529;28;20042;-78
2021/08/31 05:20:42;;;;;;;15.60;9.70;;;;;;;15.16;90.90;101345.19;5005589;28;20052;-78
2021/08/31 05:23:08;;;;;;;20.10;10.15;;;;;;;15.14;91.86;101347.47;5003825;28;20055;-78
2021/08/31 05:25:34;;;;;;;15.50;9.45;;;;;;;15.15;91.63;101343.53;5021433;28;20555;-78
2021/08/31 05:28:00;;;;;;;16.83;9.90;;;;;;;15.13;92.09;101352.25;4998372;28;20057;-77
2021/08/31 05:30:25;;;;;;;13.65;10.00;;;;;;;15.12;92.00;101350.56;5026126;28;20029;-77
2021/08/31 05:32:51;;;;;;;17.27;9.25;;;;;;;15.12;91.86;101352.53;5027526;28;20064;-78
2021/08/31 05:35:16;;;;;;;17.27;9.43;;;;;;;15.09;92.75;101351.16;5040504;28;20037;-78
2021/08/31 05:37:42;;;;;;;16.17;9.32;;;;;;;15.08;92.52;101354.28;5011503;28;20501;-78
2021/08/31 05:40:08;;;;;;;16.15;9.30;;;;;;;15.10;91.68;101360.38;5003899;28;20505;-78
2021/08/31 05:42:33;;;;;;;17.80;9.30;;;;;;;15.08;91.85;101360.72;5015886;28;20034;-77
2021/08/31 05:44:59;;;;;;;14.63;8.60;;;;;;;15.09;91.90;101356.75;5008030;28;20034;-77
2021/08/31 05:47:24;;;;;;;15.30;8.32;;;;;;;15.10;91.41;101355.66;5027697;28;20029;-77
2021/08/31 05:49:50;;;;;;;15.60;8.75;;;;;;;15.12;91.17;101360.91;5032135;28;20397;-77
2021/08/31 05:52:16;;;;;;;15.30;7.85;;;;;;;15.11;91.02;101365.69;5020112;28;20037;-77
2021/08/31 05:54:41;;;;;;;13.68;7.75;;;;;;;15.09;91.12;101367.94;5004076;28;20052;-77
2021/08/31 05:57:10;;;;;;;15.27;7.93;;;;;;;15.12;90.65;101363.72;5022159;28;20086;-77
2021/08/31 05:59:39;;;;;;;14.32;7.95;;;;;;;15.12;90.74;101360.91;5004671;28;20034;-77
2021/08/31 06:02:09;;;;;;;15.65;8.05;;;;;;;15.05;90.68;101364.13;5008615;28;20056;-77
2021/08/31 06:04:37;;;;;;;15.43;7.18;;;;;;;15.05;90.10;101364.13;5002839;28;20033;-78
2021/08/31 06:07:07;;;;;;;11.55;6.70;;;;;;;15.06;90.00;101354.56;4992373;28;20501;-77
2021/08/31 06:09:36;;;;;;;10.80;6.72;;;;;;;15.08;90.16;101363.50;5037517;28;20037;-77
2021/08/31 06:12:02;;;;;;;12.43;7.05;;;;;;;15.10;90.20;101369.63;5019849;28;20491;-78
2021/08/31 06:14:28;;;;;;;13.23;6.78;;;;;;;15.10;90.19;101368.78;5040676;28;20040;-77
2021/08/31 06:16:53;;;;;;;15.20;6.97;;;;;;;15.13;89.77;101374.63;4993614;28;20017;-77
2021/08/31 06:19:19;;;;;;;12.60;6.68;;;;;;;15.12;90.10;101372.09;4995748;28;20037;-77
2021/08/31 06:21:44;;;;;;;12.90;6.57;;;;;;;15.12;90.13;101370.13;5010083;28;20036;-77
2021/08/31 06:24:10;;;;;;;13.07;6.35;;;;;;;15.16;89.82;101375.97;5004949;28;20026;-78
2021/08/31 06:26:35;;;;;;;12.80;6.50;;;;;;;15.20;89.58;101377.03;5032344;28;20034;-77
2021/08/31 06:29:01;;;;;;;13.40;6.80;;;;;;;15.22;89.27;101374.75;5013145;28;20041;-77
2021/08/31 06:31:26;;;;;;;11.43;5.95;;;;;;;15.26;89.08;101378.59;5003158;28;20500;-77
2021/08/31 06:33:52;;;;;;;12.80;6.45;;;;;;;15.27;89.22;101385.03;4996713;28;20029;-78
2021/08/31 06:36:17;;;;;;;15.32;6.57;;;;;;;15.29;88.82;101377.16;5014646;28;20432;-77
2021/08/31 06:38:43;;;;;;;11.20;5.70;;;;;;;15.32;88.56;101377.41;5038911;28;20029;-77
2021/08/31 06:41:08;;;;;;;13.65;6.10;;;;;;;15.33;88.32;101387.44;5028886;28;20065;-77
2021/08/31 06:43:34;;;;;;;10.75;5.35;;;;;;;15.35;87.70;101385.19;5017568;28;20043;-77
2021/08/31 06:46:00;;;;;;;12.15;5.65;;;;;;;15.39;87.75;101389.03;5006550;28;20025;-77
2021/08/31 06:48:25;;;;;;;12.73;5.85;;;;;;;15.40;87.48;101382.28;4998060;28;20087;-77
2021/08/31 06:50:51;;;;;;;9.82;5.07;;;;;;;15.46;87.08;101390.59;5017586;28;20028;-77
2021/08/31 06:53:16;;;;;;;11.63;5.90;;;;;;;15.49;86.84;101390.84;5006237;28;20025;-77
2021/08/31 06:55:42;;;;;;;9.30;4.90;;;;;;;15.51;86.69;101399.72;5003068;28;20044;-77
2021/08/31 06:58:08;;;;;;;12.52;5.22;;;;;;;15.55;86.27;101398.00;5000994;28;20091;-77
2021/08/31 07:00:33;;;;;;;12.23;5.55;;;;;;;15.58;85.95;101396.56;5035042;28;20045;-77
2021/08/31 07:02:59;;;;;;;11.43;4.88;;;;;;;15.64;85.41;101392.53;5050770;28;20053;-77
2021/08/31 07:05:24;;;;;;;11.40;5.05;;;;;;;15.67;84.67;101393.88;5035334;28;20076;-78
2021/08/31 07:07:52;;;;;;;9.77;4.88;;;;;;;15.71;84.39;101409.81;5023025;28;20049;-77
2021/08/31 07:10:17;;;;;;;9.52;4.55;;;;;;;15.78;83.04;101396.22;5028732;28;20032;-78
2021/08/31 07:12:43;;;;;;;13.05;5.32;;;;;;;15.79;83.54;101399.84;5004346;28;20025;-77
2021/08/31 07:15:09;;;;;;;13.07;5.32;;;;;;;15.85;83.20;101393.88;5007542;28;20029;-78
2021/08/31 07:17:35;;;;;;;11.50;4.97;;;;;;;15.95;82.66;101403.22;5005173;28;20031;-78
2021/08/31 07:20:00;;;;;;;11.30;4.35;;;;;;;16.00;82.56;101403.13;5014303;28;20417;-78
2021/08/31 07:22:26;;;;;;;10.85;4.35;;;;;;;16.06;82.38;101405.50;5003597;28;20057;-77
2021/08/31 07:24:52;;;;;;;8.93;4.35;;;;;;;16.16;82.20;101398.88;5001077;28;20028;-78
2021/08/31 07:27:17;;;;;;;15.70;4.40;;;;;;;16.29;80.97;101395.22;5000043;28;20030;-78
2021/08/31 07:29:43;;;;;;;13.38;4.57;;;;;;;16.41;79.89;101396.69;5003630;28;20358;-78
2021/08/31 07:32:08;;;;;;;10.75;3.92;;;;;;;16.56;79.14;101407.59;5008492;28;20025;-78
2021/08/31 07:34:34;;;;;;;9.05;3.85;;;;;;;16.74;78.58;101398.22;5028842;28;20068;-77
2021/08/31 07:37:03;;;;;;;9.45;3.80;;;;;;;16.88;77.81;101397.38;5001505;28;20075;-77
2021/08/31 07:39:29;;;;;;;9.20;4.00;;;;;;;16.99;76.85;101396.00;5020860;28;20532;-77
2021/08/31 07:41:54;;;;;;;11.50;3.80;;;;;;;17.16;76.18;101393.38;5019088;28;20025;-77
2021/08/31 07:44:20;;;;;;;10.00;4.20;;;;;;;17.29;75.52;101402.06;5036308;28;20116;-77
2021/08/31 07:46:46;;;;;;;10.50;3.88;;;;;;;17.39;74.31;101402.63;5016679;28;20036;-77
2021/08/31 07:49:15;;;;;;;7.22;3.95;;;;;;;17.47;72.70;101403.00;5015331;28;20029;-77
2021/08/31 07:51:41;;;;;;;9.82;3.90;;;;;;;17.57;73.42;101399.94;5015281;28;20029;-77
2021/08/31 07:54:07;;;;;;;9.95;3.50;;;;;;;17.70;73.47;101401.03;5017954;28;20030;-77
2021/08/31 07:56:33;;;;;;;10.00;4.00;;;;;;;17.79;71.99;101399.97;5031383;28;20390;-77
2021/08/31 07:58:59;;;;;;;10.98;3.70;;;;;;;17.92;71.60;101394.59;5013323;28;20048;-77
2021/08/31 08:01:24;;;;;;;12.75;3.80;;;;;;;17.95;69.92;101408.81;5017138;28;20059;-77
2021/08/31 08:03:50;;;;;;;11.48;3.92;;;;;;;18.00;70.09;101400.25;5028265;28;20461;-77
2021/08/31 08:06:16;;;;;;;10.38;3.65;;;;;;;18.10;69.77;101393.50;5007939;28;20041;-77
2021/08/31 08:08:41;;;;;;;11.10;4.22;;;;;;;18.16;69.80;101399.81;5003847;28;20359;-77
2021/08/31 08:11:07;;;;;;;13.57;3.90;;;;;;;18.14;69.22;101400.16;5020953;28;20434;-77
2021/08/31 08:13:33;;;;;;;10.98;3.42;;;;;;;18.27;69.37;101398.38;5014441;28;20037;-76
2021/08/31 08:15:59;;;;;;;10.68;3.50;;;;;;;18.35;68.65;101400.38;4989290;28;20022;-76
2021/08/31 08:18:24;;;;;;;9.20;3.80;;;;;;;18.40;68.28;101405.88;5002477;28;20079;-77
2021/08/31 08:20:50;;;;;;;12.07;3.85;;;;;;;18.47;68.13;101397.81;5012426;28;20037;-77
2021/08/31 08:23:16;;;;;;;11.00;3.70;;;;;;;18.47;67.81;101395.00;5018510;28;20048;-77
2021/08/31 08:25:42;;;;;;;9.57;3.42;;;;;;;18.59;67.30;101393.53;5024661;28;20029;-77
2021/08/31 08:28:07;;;;;;;9.10;3.38;;;;;;;18.67;67.75;101395.53;5007916;28;20052;-76
2021/08/31 08:30:33;;;;;;;8.77;3.40;;;;;;;18.73;66.85;101389.41;5030506;28;20037;-77
2021/08/31 08:32:59;;;;;;;7.15;3.50;;;;;;;18.80;66.94;101394.56;5009298;28;20026;-77
2021/08/31 08:35:25;;;;;;;6.40;3.20;;;;;;;18.91;65.32;101393.09;5003269;28;20490;-77
2021/08/31 08:37:51;;;;;;;7.97;3.53;;;;;;;18.86;65.03;101404.53;5003368;28;20026;-76
2021/08/31 08:40:16;;;;;;;12.10;3.85;;;;;;;18.86;65.01;101398.91;5011601;28;20075;-77
2021/08/31 08:42:42;;;;;;;10.27;3.67;;;;;;;18.90;64.98;101408.34;4988748;28;20029;-78
2021/08/31 08:45:08;;;;;;;11.60;3.50;;;;;;;18.92;64.87;101403.22;5020859;28;20096;-77
2021/08/31 08:47:34;;;;;;;7.32;3.25;;;;;;;19.01;64.87;101416.47;5010134;28;20051;-77
2021/08/31 08:50:00;;;;;;;9.55;3.92;;;;;;;19.12;65.78;101407.38;5008760;28;20021;-77
2021/08/31 08:52:26;;;;;;;9.57;3.65;;;;;;;19.27;64.69;101403.22;5022103;28;20034;-77
2021/08/31 08:54:51;;;;;;;8.85;3.25;;;;;;;19.41;64.52;101415.16;5005517;28;20391;-77
2021/08/31 08:57:18;;;;;;;9.05;3.33;;;;;;;19.51;63.10;101414.00;5017475;28;20025;-77
2021/08/31 08:59:43;;;;;;;10.82;3.10;;;;;;;19.50;62.81;101411.50;5002718;28;20072;-77
2021/08/31 09:02:09;;;;;;;7.15;3.70;;;;;;;19.62;63.08;101406.03;5021362;28;20038;-77
2021/08/31 09:04:48;;;;;;;7.63;3.10;;;;;;;19.61;62.63;101413.66;5018245;28;20446;-77
2021/08/31 09:07:21;;;;;;;8.18;3.33;;;;;;;19.61;62.84;101422.13;5033026;28;20033;-78
2021/08/31 09:09:48;;;;;;;6.05;3.15;;;;;;;19.53;62.37;101422.97;5002893;28;20090;-74
2021/08/31 09:12:33;;;;;;;6.88;3.42;;;;;;;19.58;62.37;101419.94;5048654;28;20032;-74
2021/08/31 09:15:29;;;;;;;7.40;3.42;;;;;;;19.68;62.80;101423.63;5026952;28;20029;-74
2021/08/31 09:18:08;;;;;;;10.35;3.55;;;;;;;19.74;61.77;101423.09;5036638;28;20478;-75
2021/08/31 09:20:36;;;;;;;6.47;3.13;;;;;;;19.86;61.83;101420.44;5046653;28;20040;-75
2021/08/31 09:23:02;;;;;;;10.27;3.50;;;;;;;19.82;61.96;101429.91;5045738;28;20032;-75
2021/08/31 09:25:40;;;;;;;11.05;3.65;;;;;;;19.95;61.54;101419.59;5039658;28;20389;-75
2021/08/31 09:28:18;;;;;;;10.63;3.35;;;;;;;19.97;60.66;101418.06;5046784;28;20083;-74
2021/08/31 09:30:43;;;;;;;9.45;3.10;;;;;;;20.01;60.49;101421.06;5045184;28;20034;-74
2021/08/31 09:33:15;;;;;;;10.75;3.17;;;;;;;19.91;60.45;101424.25;5014156;28;20488;-75
2021/08/31 09:35:43;;;;;;;9.93;3.78;;;;;;;19.82;60.79;101415.81;5053044;28;20079;-75
2021/08/31 09:38:16;;;;;;;9.13;3.55;;;;;;;19.68;61.38;101416.00;5045271;28;20032;-75
2021/08/31 09:40:50;;;;;;;9.82;3.70;;;;;;;19.57;61.98;101425.94;5043328;28;20033;-75
2021/08/31 09:43:17;;;;;;;9.95;3.63;;;;;;;19.68;62.77;101418.81;5039084;28;20143;-75
2021/08/31 09:45:44;;;;;;;10.52;4.03;;;;;;;19.75;62.31;101419.16;5050416;28;20028;-75
2021/08/31 09:48:12;;;;;;;9.93;4.25;;;;;;;19.99;63.32;101423.38;5046631;28;20081;-75
2021/08/31 09:50:44;;;;;;;12.38;3.97;;;;;;;20.12;63.02;101413.91;5025368;28;20072;-75
2021/08/31 09:53:15;;;;;;;10.85;4.38;;;;;;;20.31;61.64;101421.97;5019066;28;20022;-75
2021/08/31 09:55:42;;;;;;;9.57;3.72;;;;;;;20.40;61.88;101424.75;5044463;28;20026;-75
2021/08/31 09:58:25;;;;;;;9.35;3.88;;;;;;;20.50;61.69;101418.69;5038145;28;20017;-75
2021/08/31 10:00:53;;;;;;;8.68;4.35;;;;;;;20.41;59.76;101434.84;5050222;28;20104;-75
2021/08/31 10:03:19;;;;;;;6.78;3.83;;;;;;;20.48;60.11;101432.34;5046214;28;20391;-75
2021/08/31 10:05:44;;;;;;;13.63;4.15;;;;;;;20.38;59.99;101429.88;5046815;28;20025;-74
2021/08/31 10:08:11;;;;;;;10.13;3.60;;;;;;;20.35;60.24;101424.94;5037434;28;20052;-74
2021/08/31 10:10:37;;;;;;;10.77;3.72;;;;;;;20.20;60.88;101429.97;5049687;28;20048;-74
2021/08/31 10:13:07;;;;;;;9.98;3.47;;;;;;;20.10;60.76;101424.69;5052895;28;20262;-74
2021/08/31 10:15:35;;;;;;;9.38;3.30;;;;;;;20.16;60.35;101430.97;5024738;28;20025;-73
2021/08/31 10:18:01;;;;;;;8.38;3.78;;;;;;;20.09;60.99;101429.50;5042804;28;20029;-74
2021/08/31 10:20:27;;;;;;;8.20;4.03;;;;;;;20.10;61.34;101430.31;5019238;28;20038;-74
2021/08/31 10:22:54;;;;;;;8.50;3.63;;;;;;;20.06;61.69;101426.53;4987163;28;20056;-74
2021/08/31 10:25:24;;;;;;;10.55;3.90;;;;;;;20.07;62.09;101414.91;5031306;28;20029;-74
2021/08/31 10:27:49;;;;;;;10.85;4.30;;;;;;;20.02;62.07;101422.72;5027443;28;20028;-74
2021/08/31 10:30:18;;;;;;;12.35;4.63;;;;;;;20.07;61.72;101417.72;5036534;28;20422;-74
2021/08/31 10:32:44;;;;;;;10.07;4.20;;;;;;;20.11;62.00;101417.03;5051614;28;20033;-73
2021/08/31 10:35:14;;;;;;;9.55;3.75;;;;;;;20.26;62.12;101427.78;5020734;28;20025;-74
2021/08/31 10:37:44;;;;;;;9.75;3.95;;;;;;;20.21;61.92;101420.31;5020855;28;20033;-74
2021/08/31 10:40:09;;;;;;;8.80;4.13;;;;;;;20.16;62.00;101420.50;5037453;28;20041;-74
2021/08/31 10:42:35;;;;;;;11.43;4.60;;;;;;;20.25;62.12;101415.69;5015838;28;20060;-73
2021/08/31 10:45:03;;;;;;;8.20;3.75;;;;;;;20.28;62.07;101408.50;5036647;28;20041;-73
2021/08/31 10:47:37;;;;;;;8.90;4.00;;;;;;;20.27;61.51;101413.31;5021547;28;20362;-73
2021/08/31 10:50:05;;;;;;;6.78;4.22;;;;;;;20.25;61.81;101414.84;5010835;28;20033;-72
2021/08/31 10:52:44;;;;;;;8.55;4.25;;;;;;;20.31;62.90;101414.31;5041308;28;20059;-73
2021/08/31 10:55:18;;;;;;;8.88;4.15;;;;;;;20.28;62.55;101415.00;5034570;28;20057;-72
2021/08/31 10:57:45;;;;;;;8.18;4.40;;;;;;;20.34;62.15;101424.09;5026440;28;20481;-73
2021/08/31 11:00:30;;;;;;;9.65;4.10;;;;;;;20.46;62.08;101409.28;5007682;28;20025;-72
2021/08/31 11:02:59;;;;;;;9.25;4.45;;;;;;;20.46;61.83;101420.56;5049639;28;20044;-72
2021/08/31 11:05:28;;;;;;;12.68;4.40;;;;;;;20.50;62.75;101421.53;5018324;28;20032;-72
2021/08/31 11:08:00;;;;;;;6.97;4.35;;;;;;;20.46;62.15;101415.75;5033887;28;20493;-72
2021/08/31 11:10:35;;;;;;;10.57;4.60;;;;;;;20.45;62.16;101418.91;5052556;28;20025;-72
2021/08/31 11:13:17;;;;;;;10.57;4.65;;;;;;;20.52;62.50;101416.38;5021248;28;20358;-72